Time;durP1;ratioP1;P1;durP2;ratioP2;P2;SDS_P1;SDS_P2;PMS_P1;PMS_P2;Temp;Humidity;BMP_temperature;BMP_pressure;BME280_temperature;BME280_humidity;BME280_pressure;Samples;Min_cycle;Max_cycle;Signal;HPM_P1;HPM_P2
2023/08/26 00:01:29;;;;;;;21.10;19.20;;;19.30;99.90;;;;;;5016706;28;20469;-57
2023/08/26 00:03:57;;;;;;;23.07;20.97;;;19.30;99.90;;;;;;5027715;28;20488;-57
2023/08/26 00:06:25;;;;;;;23.00;20.90;;;19.30;99.90;;;;;;5034448;28;21015;-57
2023/08/26 00:08:54;;;;;;;21.43;19.53;;;19.30;99.90;;;;;;5027953;28;20480;-57
2023/08/26 00:11:22;;;;;;;22.07;20.10;;;19.30;99.90;;;;;;5014315;28;20502;-57
2023/08/26 00:13:50;;;;;;;20.73;18.93;;;19.30;99.90;;;;;;5031085;28;20592;-57
2023/08/26 00:16:18;;;;;;;21.13;19.13;;;19.20;99.90;;;;;;5030524;28;20585;-57
2023/08/26 00:18:49;;;;;;;21.80;19.90;;;19.20;99.90;;;;;;5035512;28;20494;-57
2023/08/26 00:21:21;;;;;;;22.87;20.73;;;19.20;99.90;;;;;;5033336;28;20549;-56
2023/08/26 00:23:49;;;;;;;20.73;18.93;;;19.10;99.90;;;;;;5036283;28;20490;-58
2023/08/26 00:26:17;;;;;;;21.00;19.07;;;19.10;99.90;;;;;;5027877;28;20569;-57
2023/08/26 00:28:46;;;;;;;22.70;20.40;;;19.10;99.90;;;;;;5025536;28;20486;-58
2023/08/26 00:31:14;;;;;;;21.87;19.90;;;19.10;99.90;;;;;;5028461;28;20476;-57
2023/08/26 00:33:42;;;;;;;20.43;18.73;;;19.00;99.90;;;;;;5029995;28;20482;-57
2023/08/26 00:36:11;;;;;;;19.70;18.07;;;19.00;99.90;;;;;;5026215;28;20918;-57
2023/08/26 00:38:39;;;;;;;20.17;18.33;;;19.00;99.90;;;;;;5025825;28;20567;-57
2023/08/26 00:41:07;;;;;;;21.17;19.17;;;19.00;99.90;;;;;;5031124;28;20635;-57
2023/08/26 00:43:37;;;;;;;21.37;19.47;;;19.00;99.90;;;;;;5030601;28;20490;-56
2023/08/26 00:46:05;;;;;;;20.60;18.80;;;19.00;99.90;;;;;;5026113;28;20471;-57
2023/08/26 00:48:34;;;;;;;19.40;17.70;;;18.90;99.90;;;;;;5030807;28;20559;-57
2023/08/26 00:51:03;;;;;;;19.80;18.10;;;18.90;99.90;;;;;;5028737;28;20558;-57
2023/08/26 00:53:32;;;;;;;19.67;18.03;;;18.90;99.90;;;;;;5027696;28;20643;-57
2023/08/26 00:56:00;;;;;;;18.83;17.13;;;18.90;99.90;;;;;;5030429;28;20569;-57
2023/08/26 00:58:31;;;;;;;18.33;16.73;;;18.80;99.90;;;;;;5031183;28;20565;-58
2023/08/26 01:00:59;;;;;;;18.10;16.40;;;18.80;99.90;;;;;;5034617;28;20470;-57
2023/08/26 01:03:27;;;;;;;19.70;17.80;;;18.80;99.90;;;;;;5024414;28;20487;-57
2023/08/26 01:05:55;;;;;;;19.30;17.50;;;18.70;99.90;;;;;;5028047;28;20483;-57
2023/08/26 01:08:24;;;;;;;20.63;18.70;;;18.70;99.90;;;;;;5020248;28;20476;-57
2023/08/26 01:11:04;;;;;;;19.27;17.47;;;18.70;99.90;;;;;;5030258;28;20464;-56
2023/08/26 01:13:42;;;;;;;19.30;17.57;;;18.70;99.90;;;;;;5032242;28;20486;-57
2023/08/26 01:16:12;;;;;;;20.10;18.30;;;18.60;99.90;;;;;;5030193;28;21158;-56
2023/08/26 01:18:41;;;;;;;18.63;17.00;;;18.60;99.90;;;;;;5022392;28;20474;-57
2023/08/26 01:21:11;;;;;;;19.30;17.50;;;18.60;99.90;;;;;;5033151;28;20474;-57
2023/08/26 01:23:42;;;;;;;19.90;18.10;;;18.60;99.90;;;;;;5033321;28;20483;-57
2023/08/26 01:26:10;;;;;;;20.60;18.70;;;18.50;99.90;;;;;;5025515;28;20482;-57
2023/08/26 01:28:38;;;;;;;20.93;18.77;;;18.50;99.90;;;;;;5034916;28;20507;-57
2023/08/26 01:31:10;;;;;;;20.40;18.40;;;18.50;99.90;;;;;;5033159;28;20562;-57
2023/08/26 01:33:45;;;;;;;20.13;18.30;;;18.50;99.90;;;;;;5030832;28;20506;-56
2023/08/26 01:36:18;;;;;;;19.83;17.93;;;18.50;99.90;;;;;;5028605;28;20974;-58
2023/08/26 01:38:48;;;;;;;21.50;19.50;;;18.50;99.90;;;;;;5027718;28;20597;-57
2023/08/26 01:41:20;;;;;;;19.87;18.17;;;18.50;99.90;;;;;;5027476;28;20549;-56
2023/08/26 01:43:48;;;;;;;22.57;20.47;;;18.50;99.90;;;;;;5025330;28;21013;-57
2023/08/26 01:46:16;;;;;;;22.43;20.17;;;18.50;99.90;;;;;;5032337;28;21046;-56
2023/08/26 01:48:44;;;;;;;22.17;20.07;;;18.60;99.90;;;;;;5029959;28;20558;-56
2023/08/26 01:51:15;;;;;;;22.60;20.40;;;18.60;99.90;;;;;;5026783;28;20478;-57
2023/08/26 01:53:43;;;;;;;22.27;20.07;;;18.60;99.90;;;;;;5031570;28;20592;-57
2023/08/26 01:56:12;;;;;;;21.90;19.80;;;18.60;99.90;;;;;;5025033;28;20519;-57
2023/08/26 01:58:40;;;;;;;25.60;23.10;;;18.60;99.90;;;;;;5030962;28;20462;-57
2023/08/26 02:01:08;;;;;;;25.07;22.57;;;18.60;99.90;;;;;;5028459;28;20498;-57
2023/08/26 02:03:37;;;;;;;24.60;22.23;;;18.60;99.90;;;;;;5029204;28;20511;-57
2023/08/26 02:06:05;;;;;;;25.07;22.43;;;18.60;99.90;;;;;;5027259;28;20556;-57
2023/08/26 02:08:33;;;;;;;24.90;22.33;;;18.60;99.90;;;;;;5027113;28;20477;-57
2023/08/26 02:11:01;;;;;;;26.80;24.23;;;18.60;99.90;;;;;;5030607;28;20499;-57
2023/08/26 02:13:31;;;;;;;25.27;22.67;;;18.60;99.90;;;;;;5026944;28;20578;-57
2023/08/26 02:15:59;;;;;;;24.77;22.17;;;18.60;99.90;;;;;;5030155;28;20556;-58
2023/08/26 02:18:27;;;;;;;26.80;24.10;;;18.60;99.90;;;;;;5029490;28;20463;-57
2023/08/26 02:20:55;;;;;;;26.00;23.30;;;18.50;99.90;;;;;;5023055;28;20503;-56
2023/08/26 02:23:23;;;;;;;29.27;26.17;;;18.50;99.90;;;;;;5026634;28;20486;-57
2023/08/26 02:25:51;;;;;;;29.13;26.10;;;18.50;99.90;;;;;;5030379;28;20481;-57
2023/08/26 02:28:19;;;;;;;28.13;25.33;;;18.50;99.90;;;;;;5030282;28;20477;-58
2023/08/26 02:30:48;;;;;;;29.17;26.17;;;18.50;99.90;;;;;;5025584;28;20501;-58
2023/08/26 02:33:16;;;;;;;28.67;25.80;;;18.50;99.90;;;;;;5029988;28;20938;-57
2023/08/26 02:35:47;;;;;;;30.33;27.13;;;18.40;99.90;;;;;;5030577;28;20569;-57
2023/08/26 02:38:15;;;;;;;29.47;26.37;;;18.40;99.90;;;;;;5029027;28;20553;-57
2023/08/26 02:40:52;;;;;;;28.30;25.40;;;18.40;99.90;;;;;;5025914;28;20466;-58
2023/08/26 02:43:20;;;;;;;31.50;28.10;;;18.40;99.90;;;;;;5027928;28;20483;-57
2023/08/26 02:45:56;;;;;;;32.17;28.57;;;18.40;99.90;;;;;;5022906;28;20566;-57
2023/08/26 02:48:24;;;;;;;31.77;28.47;;;18.50;99.90;;;;;;5015405;28;20563;-57
2023/08/26 02:50:56;;;;;;;32.00;28.70;;;18.50;99.90;;;;;;5014272;28;20923;-57
2023/08/26 02:53:25;;;;;;;31.07;27.63;;;18.50;99.90;;;;;;5015130;28;20507;-57
2023/08/26 02:55:54;;;;;;;31.10;28.00;;;18.50;99.90;;;;;;5015794;28;20499;-57
2023/08/26 02:58:22;;;;;;;31.93;28.73;;;18.50;99.90;;;;;;5029519;28;20477;-57
2023/08/26 03:00:51;;;;;;;32.57;29.17;;;18.50;99.90;;;;;;5032645;28;20996;-58
2023/08/26 03:03:20;;;;;;;31.60;28.30;;;18.50;99.90;;;;;;5027965;28;22396;-57
2023/08/26 03:05:49;;;;;;;32.27;28.90;;;18.50;99.90;;;;;;5019561;28;20519;-56
2023/08/26 03:08:17;;;;;;;32.50;29.17;;;18.50;99.90;;;;;;5027556;28;20567;-57
2023/08/26 03:10:56;;;;;;;35.73;31.67;;;18.60;99.90;;;;;;5034216;28;20499;-57
2023/08/26 03:13:24;;;;;;;35.47;31.37;;;18.60;99.90;;;;;;5033033;28;20596;-57
2023/08/26 03:15:52;;;;;;;37.23;31.87;;;18.60;99.90;;;;;;5026918;28;20592;-57
2023/08/26 03:18:22;;;;;;;34.03;30.47;;;18.60;99.90;;;;;;5032539;28;20490;-57
2023/08/26 03:20:50;;;;;;;36.17;31.73;;;18.60;99.90;;;;;;5031441;28;20520;-58
2023/08/26 03:23:18;;;;;;;37.10;32.10;;;18.60;99.90;;;;;;5027364;28;21026;-57
2023/08/26 03:25:46;;;;;;;32.77;29.10;;;18.70;99.90;;;;;;5029667;28;20494;-57
2023/08/26 03:28:14;;;;;;;34.50;30.77;;;18.60;99.90;;;;;;5033465;28;20462;-57
2023/08/26 03:30:42;;;;;;;36.60;31.63;;;18.70;99.90;;;;;;5027431;28;20476;-56
2023/08/26 03:33:10;;;;;;;37.37;33.33;;;18.80;99.90;;;;;;5032528;28;20474;-57
2023/08/26 03:35:41;;;;;;;36.43;32.10;;;18.80;99.90;;;;;;5029204;28;21980;-57
2023/08/26 03:38:09;;;;;;;38.00;33.80;;;18.80;99.90;;;;;;5032171;28;20550;-56
2023/08/26 03:40:40;;;;;;;38.17;33.27;;;18.80;99.90;;;;;;5031421;28;20528;-56
2023/08/26 03:43:08;;;;;;;34.17;30.47;;;18.80;99.90;;;;;;5035667;28;20481;-57
2023/08/26 03:45:36;;;;;;;34.00;30.37;;;18.80;99.90;;;;;;5024893;28;20701;-57
2023/08/26 03:48:05;;;;;;;35.43;31.70;;;18.80;99.90;;;;;;5021792;28;20824;-56
2023/08/26 03:50:33;;;;;;;32.80;29.30;;;18.90;99.90;;;;;;5027913;28;20481;-57
2023/08/26 03:53:03;;;;;;;32.20;28.90;;;18.90;99.90;;;;;;5032920;28;20850;-56
2023/08/26 03:55:36;;;;;;;32.63;28.90;;;18.90;99.90;;;;;;5025238;28;20478;-57
2023/08/26 03:58:04;;;;;;;33.63;29.20;;;19.00;99.90;;;;;;5027838;28;20939;-57
2023/08/26 04:00:32;;;;;;;33.33;29.53;;;18.90;99.90;;;;;;5026037;28;20570;-57
2023/08/26 04:03:00;;;;;;;35.40;31.37;;;18.90;99.90;;;;;;5032476;28;20467;-56
2023/08/26 04:05:28;;;;;;;33.03;29.53;;;18.90;99.90;;;;;;5028907;28;20483;-57
2023/08/26 04:07:56;;;;;;;33.83;30.20;;;18.90;99.90;;;;;;5026843;28;20956;-57
2023/08/26 04:10:26;;;;;;;33.37;29.77;;;18.90;99.90;;;;;;5016951;28;20482;-57
2023/08/26 04:12:58;;;;;;;35.50;29.77;;;18.90;99.90;;;;;;5034570;28;20483;-57
2023/08/26 04:15:26;;;;;;;33.63;28.80;;;18.90;99.90;;;;;;5029045;28;20876;-57
2023/08/26 04:17:54;;;;;;;32.97;29.30;;;18.90;99.90;;;;;;5034296;28;20474;-57
2023/08/26 04:20:22;;;;;;;32.13;28.73;;;18.80;99.90;;;;;;5028095;28;20471;-57
2023/08/26 04:22:51;;;;;;;32.23;28.83;;;18.80;99.90;;;;;;5033262;28;20892;-57
2023/08/26 04:25:19;;;;;;;33.30;29.60;;;18.90;99.90;;;;;;5027911;28;20487;-57
2023/08/26 04:27:48;;;;;;;38.43;31.07;;;18.90;99.90;;;;;;5034695;28;20471;-57
2023/08/26 04:30:16;;;;;;;32.20;27.47;;;18.90;99.90;;;;;;5031190;28;20474;-56
2023/08/26 04:32:45;;;;;;;33.17;29.07;;;18.90;99.90;;;;;;5035214;28;20484;-57
2023/08/26 04:35:13;;;;;;;35.67;30.30;;;18.90;99.90;;;;;;5026252;28;20495;-57
2023/08/26 04:37:41;;;;;;;32.77;29.27;;;18.90;99.90;;;;;;5027468;28;20590;-57
2023/08/26 04:40:12;;;;;;;35.30;29.90;;;18.90;99.90;;;;;;5033935;28;20478;-57
2023/08/26 04:42:40;;;;;;;36.00;30.43;;;18.90;99.90;;;;;;5026983;28;20556;-58
2023/08/26 04:45:14;;;;;;;32.90;27.57;;;18.90;99.90;;;;;;5030048;28;20578;-56
2023/08/26 04:47:42;;;;;;;30.37;26.77;;;18.90;99.90;;;;;;5027353;28;21043;-56
2023/08/26 04:50:11;;;;;;;33.30;28.67;;;18.90;99.90;;;;;;5035491;28;20493;-58
2023/08/26 04:52:40;;;;;;;33.40;27.67;;;18.90;99.90;;;;;;5030282;28;20467;-57
2023/08/26 04:55:09;;;;;;;35.10;27.90;;;18.90;99.90;;;;;;5031856;28;20598;-57
2023/08/26 04:57:38;;;;;;;36.57;29.70;;;18.90;99.90;;;;;;5025555;28;20580;-57
2023/08/26 05:00:08;;;;;;;30.67;27.03;;;18.90;99.90;;;;;;5032423;28;20533;-57
2023/08/26 05:02:38;;;;;;;35.13;27.20;;;18.90;99.90;;;;;;5033470;28;20825;-57
2023/08/26 05:05:07;;;;;;;30.80;26.37;;;18.90;99.90;;;;;;5027376;28;20683;-56
2023/08/26 05:07:35;;;;;;;31.10;26.83;;;19.00;99.90;;;;;;5030981;28;20503;-58
2023/08/26 05:10:04;;;;;;;30.30;25.83;;;19.00;99.90;;;;;;5033993;28;20559;-57
2023/08/26 05:12:34;;;;;;;29.90;24.57;;;19.00;99.90;;;;;;5032871;28;20499;-57
2023/08/26 05:15:04;;;;;;;29.53;25.70;;;19.00;99.90;;;;;;5016007;28;20494;-56
2023/08/26 05:17:32;;;;;;;28.17;24.03;;;19.00;99.90;;;;;;5024439;28;20467;-56
2023/08/26 05:20:02;;;;;;;25.17;22.47;;;19.00;99.90;;;;;;5029059;28;20477;-57
2023/08/26 05:22:30;;;;;;;23.47;20.70;;;19.00;99.90;;;;;;5026039;28;20924;-57
2023/08/26 05:24:58;;;;;;;24.67;21.10;;;18.90;99.90;;;;;;5029286;28;21027;-57
2023/08/26 05:27:27;;;;;;;23.50;19.93;;;18.90;99.90;;;;;;5030180;28;20561;-57
2023/08/26 05:29:55;;;;;;;19.87;17.77;;;19.00;99.90;;;;;;5033549;28;20471;-57
2023/08/26 05:32:24;;;;;;;19.83;17.70;;;19.00;99.90;;;;;;5028232;28;20550;-56
2023/08/26 05:34:52;;;;;;;20.50;18.50;;;19.00;99.90;;;;;;5028137;28;21015;-57
2023/08/26 05:37:24;;;;;;;20.30;18.20;;;19.00;99.90;;;;;;5032102;28;20518;-57
2023/08/26 05:39:52;;;;;;;20.30;18.20;;;18.90;99.90;;;;;;5033536;28;20547;-57
2023/08/26 05:42:20;;;;;;;19.87;17.70;;;18.90;99.90;;;;;;5022258;28;20499;-57
2023/08/26 05:44:48;;;;;;;20.17;17.47;;;18.90;99.90;;;;;;5026182;28;20502;-56
2023/08/26 05:47:16;;;;;;;18.87;16.97;;;18.90;99.90;;;;;;5029006;28;20471;-57
2023/08/26 05:49:44;;;;;;;21.27;17.27;;;18.90;99.90;;;;;;5030596;28;20471;-57
2023/08/26 05:52:12;;;;;;;19.63;17.60;;;18.90;99.90;;;;;;5025772;28;20479;-57
2023/08/26 05:54:42;;;;;;;19.13;17.20;;;19.00;99.90;;;;;;5021570;28;20531;-57
2023/08/26 05:57:12;;;;;;;19.20;17.13;;;19.00;99.90;;;;;;5026819;28;20558;-58
2023/08/26 05:59:40;;;;;;;19.67;17.57;;;19.10;99.90;;;;;;5029525;28;20475;-57
2023/08/26 06:02:08;;;;;;;20.57;18.37;;;19.00;99.90;;;;;;5028595;28;20566;-57
2023/08/26 06:04:36;;;;;;;19.07;16.63;;;19.00;99.90;;;;;;5025362;28;21000;-58
2023/08/26 06:07:05;;;;;;;21.03;16.77;;;19.10;99.90;;;;;;5024404;28;20558;-57
2023/08/26 06:09:33;;;;;;;19.53;17.53;;;19.10;99.90;;;;;;5022604;28;20474;-57
2023/08/26 06:12:02;;;;;;;19.77;17.80;;;19.10;99.90;;;;;;5029981;28;20568;-56
2023/08/26 06:14:30;;;;;;;19.83;17.73;;;19.10;99.90;;;;;;5024463;28;20574;-57
2023/08/26 06:16:58;;;;;;;18.80;16.80;;;19.10;99.90;;;;;;5022586;28;20987;-57
2023/08/26 06:19:26;;;;;;;18.90;16.90;;;19.10;99.90;;;;;;5022740;28;20970;-58
2023/08/26 06:21:54;;;;;;;18.90;16.80;;;19.10;99.90;;;;;;5021109;28;20862;-58
2023/08/26 06:24:22;;;;;;;20.23;18.27;;;19.10;99.90;;;;;;5026180;28;21035;-58
2023/08/26 06:26:50;;;;;;;19.30;16.30;;;19.10;99.90;;;;;;5023432;28;20486;-59
2023/08/26 06:29:21;;;;;;;18.00;15.97;;;19.10;99.90;;;;;;5023381;28;20504;-58
2023/08/26 06:31:49;;;;;;;17.23;15.63;;;19.20;99.90;;;;;;5018709;28;20471;-58
2023/08/26 06:34:17;;;;;;;18.43;16.47;;;19.20;99.90;;;;;;5007454;28;20497;-58
2023/08/26 06:36:46;;;;;;;16.50;14.90;;;19.20;99.90;;;;;;5026690;28;20603;-58
2023/08/26 06:39:14;;;;;;;15.53;14.03;;;19.20;99.90;;;;;;5031429;28;20505;-58
2023/08/26 06:41:42;;;;;;;17.17;15.53;;;19.20;99.90;;;;;;5026586;28;20941;-57
2023/08/26 06:44:10;;;;;;;16.30;14.70;;;19.20;99.90;;;;;;5023948;28;20929;-63
2023/08/26 06:46:40;;;;;;;15.90;14.40;;;19.30;99.90;;;;;;5021015;28;20607;-59
2023/08/26 06:49:08;;;;;;;16.50;14.90;;;19.30;99.90;;;;;;5014768;28;20483;-58
2023/08/26 06:51:36;;;;;;;14.97;13.40;;;19.30;99.90;;;;;;5021706;28;20570;-57
2023/08/26 06:54:04;;;;;;;14.27;12.87;;;19.30;99.90;;;;;;5020898;28;21043;-58
2023/08/26 06:56:32;;;;;;;12.07;11.00;;;19.30;99.90;;;;;;5027562;28;20588;-58
2023/08/26 06:59:00;;;;;;;12.93;10.60;;;19.30;99.90;;;;;;5031052;28;20459;-57
2023/08/26 07:01:29;;;;;;;10.67;9.67;;;19.30;99.90;;;;;;5023612;28;20768;-58
2023/08/26 07:04:05;;;;;;;10.77;9.77;;;19.20;99.90;;;;;;5017366;28;21090;-57
2023/08/26 07:06:33;;;;;;;8.90;8.00;;;19.20;99.90;;;;;;5017485;28;20482;-59
2023/08/26 07:09:01;;;;;;;10.30;9.40;;;19.20;99.90;;;;;;5028781;28;20473;-59
2023/08/26 07:11:29;;;;;;;9.43;8.43;;;19.20;99.90;;;;;;5030509;28;20494;-59
2023/08/26 07:13:57;;;;;;;10.37;9.47;;;19.30;99.90;;;;;;5025027;28;21087;-57
2023/08/26 07:16:26;;;;;;;9.20;8.30;;;19.30;99.90;;;;;;5020004;28;20949;-58
2023/08/26 07:18:54;;;;;;;8.97;8.17;;;19.40;99.90;;;;;;5024775;28;20910;-58
2023/08/26 07:21:23;;;;;;;7.80;7.00;;;19.40;99.90;;;;;;5029066;28;21102;-58
2023/08/26 07:23:51;;;;;;;8.40;7.60;;;19.40;99.90;;;;;;5028158;28;20593;-58
2023/08/26 07:26:19;;;;;;;8.10;7.30;;;19.40;99.90;;;;;;5021681;28;20581;-57
2023/08/26 07:28:48;;;;;;;8.07;6.70;;;19.30;99.90;;;;;;5029338;28;20561;-63
2023/08/26 07:31:16;;;;;;;7.93;7.23;;;19.20;99.90;;;;;;5016848;28;20481;-64
2023/08/26 07:33:45;;;;;;;7.40;6.80;;;19.20;99.90;;;;;;5014251;28;21011;-63
2023/08/26 07:36:13;;;;;;;7.53;6.90;;;19.20;99.90;;;;;;5019338;28;20648;-62
2023/08/26 07:38:42;;;;;;;7.97;7.00;;;19.20;99.90;;;;;;5031910;28;21040;-64
2023/08/26 07:41:10;;;;;;;7.07;6.53;;;19.10;99.90;;;;;;5029993;28;21057;-65
2023/08/26 07:43:38;;;;;;;6.80;6.10;;;19.20;99.90;;;;;;5016691;28;20648;-57
2023/08/26 07:46:06;;;;;;;7.10;6.40;;;19.10;99.90;;;;;;5014143;28;20577;-55
2023/08/26 07:48:37;;;;;;;6.83;6.23;;;19.20;99.90;;;;;;5005717;28;20965;-57
2023/08/26 07:51:05;;;;;;;7.40;6.80;;;19.20;99.90;;;;;;5029000;28;20478;-57
2023/08/26 07:53:33;;;;;;;7.43;6.73;;;19.20;99.90;;;;;;5031131;28;21002;-57
2023/08/26 07:56:03;;;;;;;7.13;6.60;;;19.20;99.90;;;;;;5033538;28;20576;-57
2023/08/26 07:58:31;;;;;;;6.60;6.00;;;19.30;99.90;;;;;;5026584;28;20474;-57
2023/08/26 08:00:59;;;;;;;7.97;7.17;;;19.30;99.90;;;;;;5024067;28;20482;-57
2023/08/26 08:03:27;;;;;;;5.60;5.20;;;19.40;99.90;;;;;;5028453;28;20494;-56
2023/08/26 08:05:55;;;;;;;5.67;5.17;;;19.50;99.90;;;;;;5036102;28;20605;-56
2023/08/26 08:08:24;;;;;;;5.07;4.60;;;19.60;99.90;;;;;;5029942;28;20566;-57
2023/08/26 08:10:52;;;;;;;5.70;5.20;;;19.80;99.90;;;;;;5029596;28;20494;-56
2023/08/26 08:13:22;;;;;;;6.63;5.33;;;19.70;99.90;;;;;;5030874;28;20501;-56
2023/08/26 08:15:50;;;;;;;5.57;5.07;;;19.70;99.90;;;;;;5030508;28;20496;-57
2023/08/26 08:18:18;;;;;;;5.80;4.50;;;19.80;99.90;;;;;;5031694;28;20884;-57
2023/08/26 08:20:46;;;;;;;4.90;4.40;;;19.80;99.90;;;;;;5023442;28;21180;-57
2023/08/26 08:23:14;;;;;;;5.00;4.10;;;19.80;99.90;;;;;;5033997;28;20908;-57
2023/08/26 08:25:42;;;;;;;5.80;4.93;;;19.70;99.90;;;;;;5031039;28;20538;-57
2023/08/26 08:28:10;;;;;;;5.20;4.40;;;19.70;99.90;;;;;;5028874;28;20560;-57
2023/08/26 08:30:39;;;;;;;4.73;4.30;;;19.60;99.90;;;;;;5024765;28;20479;-57
2023/08/26 08:33:07;;;;;;;4.80;4.40;;;19.60;99.90;;;;;;5029982;28;20911;-57
2023/08/26 08:35:35;;;;;;;6.60;4.63;;;19.50;99.90;;;;;;5028158;28;20510;-57
2023/08/26 08:38:03;;;;;;;3.90;3.60;;;19.50;99.90;;;;;;5031006;28;20475;-56
2023/08/26 08:40:31;;;;;;;4.70;4.30;;;19.40;99.90;;;;;;5034847;28;20502;-57
2023/08/26 08:43:02;;;;;;;4.07;3.77;;;19.40;99.90;;;;;;5026242;28;20530;-56
2023/08/26 08:45:30;;;;;;;4.87;4.10;;;19.30;99.90;;;;;;5032650;28;20902;-57
2023/08/26 08:48:00;;;;;;;4.63;4.23;;;19.30;99.90;;;;;;5030684;28;20996;-57
2023/08/26 08:50:30;;;;;;;4.80;4.07;;;19.30;99.90;;;;;;5034125;28;20482;-57
2023/08/26 08:53:00;;;;;;;4.97;3.80;;;19.30;99.90;;;;;;5037111;28;20529;-56
2023/08/26 08:55:28;;;;;;;5.67;5.00;;;19.30;99.90;;;;;;5035689;28;20578;-56
2023/08/26 08:57:57;;;;;;;4.57;4.17;;;19.30;99.90;;;;;;5033286;28;20550;-57
2023/08/26 09:00:27;;;;;;;4.83;4.43;;;19.30;99.90;;;;;;5033239;28;20977;-57
2023/08/26 09:02:58;;;;;;;4.27;3.97;;;19.40;99.90;;;;;;5034787;28;20517;-57
2023/08/26 09:05:28;;;;;;;4.20;3.80;;;19.40;99.90;;;;;;5031679;28;20495;-57
2023/08/26 09:07:57;;;;;;;5.10;3.63;;;19.40;99.90;;;;;;5036209;28;20549;-57
2023/08/26 09:10:27;;;;;;;4.20;3.90;;;19.50;99.90;;;;;;5030416;28;20520;-55
2023/08/26 09:12:55;;;;;;;4.10;3.50;;;19.50;99.90;;;;;;5026246;28;20576;-57
2023/08/26 09:15:24;;;;;;;4.13;3.73;;;19.60;99.90;;;;;;5023320;28;20500;-57
2023/08/26 09:17:57;;;;;;;4.90;3.20;;;19.60;99.90;;;;;;5029981;28;20491;-58
2023/08/26 09:20:28;;;;;;;4.67;2.97;;;19.60;99.90;;;;;;5015956;28;20538;-56
2023/08/26 09:23:05;;;;;;;3.00;2.80;;;19.60;99.90;;;;;;5029058;28;20956;-57
2023/08/26 09:25:33;;;;;;;3.70;3.40;;;19.60;99.90;;;;;;5021137;28;20515;-58
2023/08/26 09:28:01;;;;;;;3.97;3.60;;;19.60;99.90;;;;;;5018540;28;20478;-57
2023/08/26 09:30:29;;;;;;;4.63;3.60;;;19.60;99.90;;;;;;5031772;28;21050;-58
2023/08/26 09:32:58;;;;;;;3.90;3.60;;;19.60;99.90;;;;;;5020638;28;21053;-57
2023/08/26 09:35:26;;;;;;;3.70;3.50;;;19.60;99.90;;;;;;5017232;28;20490;-58
2023/08/26 09:37:58;;;;;;;4.50;4.10;;;19.60;99.90;;;;;;5027112;28;20494;-58
2023/08/26 09:40:30;;;;;;;5.83;3.80;;;19.70;99.90;;;;;;5033097;28;20901;-58
2023/08/26 09:43:04;;;;;;;3.60;3.30;;;19.70;99.90;;;;;;5028864;28;20725;-58
2023/08/26 09:45:37;;;;;;;3.30;3.00;;;19.70;99.90;;;;;;5034180;28;20569;-57
2023/08/26 09:48:07;;;;;;;3.47;3.10;;;19.80;99.90;;;;;;5021673;28;21343;-59
2023/08/26 09:50:35;;;;;;;3.40;3.10;;;19.90;99.90;;;;;;5029547;28;20479;-58
2023/08/26 09:53:03;;;;;;;3.67;2.90;;;20.00;99.90;;;;;;5031879;28;20471;-59
2023/08/26 09:55:33;;;;;;;4.00;3.30;;;20.10;99.90;;;;;;5033096;28;20561;-58
2023/08/26 09:58:01;;;;;;;3.70;3.40;;;20.20;99.90;;;;;;5028323;28;20566;-57
2023/08/26 10:00:30;;;;;;;2.60;2.40;;;20.20;99.90;;;;;;5027466;28;20484;-57
2023/08/26 10:03:02;;;;;;;2.80;2.00;;;20.20;99.90;;;;;;5017822;28;20568;-57
2023/08/26 10:05:33;;;;;;;2.07;1.97;;;20.10;99.90;;;;;;5033234;28;20487;-58
2023/08/26 10:08:03;;;;;;;2.00;1.90;;;20.10;99.90;;;;;;5032661;28;20459;-58
2023/08/26 10:10:40;;;;;;;3.13;2.30;;;20.10;99.90;;;;;;5028517;28;20464;-58
2023/08/26 10:13:09;;;;;;;4.90;2.80;;;20.20;99.90;;;;;;5033135;28;20475;-58
2023/08/26 10:15:37;;;;;;;7.30;4.33;;;20.20;99.90;;;;;;5028158;28;20912;-58
2023/08/26 10:18:10;;;;;;;4.70;2.60;;;20.30;99.90;;;;;;5024712;28;20522;-60
2023/08/26 10:20:39;;;;;;;3.30;3.00;;;20.40;99.90;;;;;;5030323;28;20475;-58
2023/08/26 10:23:07;;;;;;;2.70;2.50;;;20.40;99.90;;;;;;5029577;28;20561;-57
2023/08/26 10:25:37;;;;;;;2.40;2.20;;;20.40;99.90;;;;;;5022894;28;20510;-58
2023/08/26 10:28:06;;;;;;;3.73;2.67;;;20.50;99.90;;;;;;5021948;28;21054;-58
2023/08/26 10:30:34;;;;;;;2.50;2.30;;;20.50;99.90;;;;;;5024152;28;20540;-58
2023/08/26 10:33:05;;;;;;;2.93;1.93;;;20.60;99.90;;;;;;5023782;28;20467;-58
2023/08/26 10:35:33;;;;;;;2.77;2.57;;;20.70;99.90;;;;;;5031109;28;20930;-58
2023/08/26 10:38:11;;;;;;;3.70;2.37;;;20.80;99.90;;;;;;5033841;28;20491;-58
2023/08/26 10:40:41;;;;;;;2.30;2.10;;;20.80;99.90;;;;;;5032093;28;20839;-58
2023/08/26 10:43:13;;;;;;;2.67;2.40;;;20.90;99.90;;;;;;5030187;28;20477;-58
2023/08/26 10:45:48;;;;;;;4.90;2.20;;;20.90;99.90;;;;;;5026085;28;22324;-58
2023/08/26 10:48:16;;;;;;;2.20;1.90;;;21.00;99.90;;;;;;5021531;28;20555;-58
2023/08/26 10:50:57;;;;;;;2.40;2.20;;;21.00;99.90;;;;;;5025664;28;20471;-57
2023/08/26 10:53:25;;;;;;;4.00;1.93;;;21.10;99.90;;;;;;5029688;28;20495;-57
2023/08/26 10:56:13;;;;;;;3.17;2.30;;;21.20;99.90;;;;;;5019344;28;20586;-58
2023/08/26 10:58:45;;;;;;;2.83;2.30;;;21.30;99.90;;;;;;5008060;28;20530;-59
2023/08/26 11:01:13;;;;;;;2.73;2.10;;;21.40;99.90;;;;;;5016763;28;20507;-58
2023/08/26 11:03:41;;;;;;;1.90;1.70;;;21.40;99.90;;;;;;5015152;28;20845;-59
2023/08/26 11:06:09;;;;;;;3.87;1.90;;;21.40;99.90;;;;;;5016014;28;20513;-57
2023/08/26 11:08:38;;;;;;;3.47;2.20;;;21.40;99.90;;;;;;5027013;28;20565;-58
2023/08/26 11:11:11;;;;;;;2.27;2.07;;;21.50;99.90;;;;;;5024753;28;20467;-58
2023/08/26 11:13:41;;;;;;;2.33;1.70;;;21.60;99.90;;;;;;5026589;28;20665;-58
2023/08/26 11:16:09;;;;;;;2.17;1.70;;;21.70;99.90;;;;;;5017356;28;20497;-58
2023/08/26 11:18:38;;;;;;;1.93;1.83;;;21.60;99.90;;;;;;5024719;28;20487;-58
2023/08/26 11:21:07;;;;;;;1.50;1.40;;;21.60;99.90;;;;;;5034314;28;20565;-58
2023/08/26 11:23:35;;;;;;;2.23;1.50;;;21.60;99.90;;;;;;5028453;28;20498;-58
2023/08/26 11:26:08;;;;;;;2.30;2.10;;;21.60;99.90;;;;;;5018678;28;20565;-58
2023/08/26 11:28:36;;;;;;;2.17;1.77;;;21.60;99.90;;;;;;5033333;28;20529;-57
2023/08/26 11:31:04;;;;;;;3.20;1.67;;;21.70;99.90;;;;;;5024096;28;20562;-58
2023/08/26 11:33:32;;;;;;;1.30;1.20;;;21.80;99.90;;;;;;5025391;28;20578;-58
2023/08/26 11:36:02;;;;;;;2.60;1.77;;;21.90;99.90;;;;;;5025515;28;20565;-58
2023/08/26 11:38:37;;;;;;;4.23;1.70;;;22.10;99.90;;;;;;5017181;28;20595;-59
2023/08/26 11:41:06;;;;;;;2.50;1.50;;;22.10;99.90;;;;;;5030729;28;20466;-58
2023/08/26 11:43:36;;;;;;;2.33;1.63;;;22.30;99.90;;;;;;5030907;28;20547;-58
2023/08/26 11:46:06;;;;;;;1.50;1.40;;;22.50;99.90;;;;;;5028734;28;20482;-58
2023/08/26 11:48:36;;;;;;;1.97;1.60;;;22.50;99.90;;;;;;5024001;28;20486;-58
2023/08/26 11:51:05;;;;;;;1.60;1.50;;;22.70;99.90;;;;;;5028507;28;20510;-58
2023/08/26 11:53:36;;;;;;;1.43;1.33;;;22.60;99.90;;;;;;5024406;28;20494;-58
2023/08/26 11:56:04;;;;;;;2.40;1.50;;;22.50;99.90;;;;;;5031212;28;20482;-58
2023/08/26 11:58:32;;;;;;;2.07;1.40;;;22.50;99.90;;;;;;5037773;28;20491;-58
2023/08/26 12:01:02;;;;;;;1.60;1.50;;;22.70;99.90;;;;;;5031374;28;20466;-59
2023/08/26 12:03:30;;;;;;;2.90;1.80;;;23.00;99.90;;;;;;5035289;28;20547;-58
2023/08/26 12:05:59;;;;;;;1.60;1.50;;;23.20;99.90;;;;;;5032267;28;20906;-57
2023/08/26 12:08:27;;;;;;;1.40;1.30;;;23.40;99.90;;;;;;5032047;28;20558;-58
2023/08/26 12:10:55;;;;;;;2.80;1.60;;;23.60;99.90;;;;;;5035732;28;20470;-59
2023/08/26 12:13:23;;;;;;;1.60;1.50;;;23.70;99.90;;;;;;5034841;28;20471;-58
2023/08/26 12:15:51;;;;;;;1.73;1.50;;;23.70;99.90;;;;;;5026320;28;20558;-57
2023/08/26 12:18:22;;;;;;;1.70;1.60;;;23.60;99.90;;;;;;5035352;28;21239;-58
2023/08/26 12:20:50;;;;;;;2.00;1.80;;;23.50;99.90;;;;;;5033688;28;20575;-58
2023/08/26 12:23:19;;;;;;;2.13;1.60;;;23.40;99.90;;;;;;5032096;28;20473;-58
2023/08/26 12:25:48;;;;;;;1.77;1.63;;;23.20;99.90;;;;;;5034605;28;20572;-57
2023/08/26 12:28:18;;;;;;;2.10;1.93;;;23.10;99.90;;;;;;5034698;28;20471;-58
2023/08/26 12:30:47;;;;;;;2.93;1.60;;;23.10;99.90;;;;;;5037090;28;20485;-58
2023/08/26 12:33:16;;;;;;;2.00;1.80;;;23.10;99.90;;;;;;5032815;28;20532;-57
2023/08/26 12:35:55;;;;;;;2.03;1.93;;;23.10;99.90;;;;;;5002546;28;20490;-58
2023/08/26 12:38:24;;;;;;;1.57;1.47;;;23.00;99.90;;;;;;5011775;28;20511;-58
2023/08/26 12:40:52;;;;;;;2.33;1.80;;;23.00;99.90;;;;;;5015796;28;20854;-57
2023/08/26 12:43:20;;;;;;;2.10;1.60;;;22.90;99.90;;;;;;5028126;28;20467;-58
2023/08/26 12:45:49;;;;;;;2.00;1.80;;;22.80;99.90;;;;;;5023631;28;20501;-60